Time;durP1;ratioP1;P1;durP2;ratioP2;P2;SDS_P1;SDS_P2;PMS_P1;PMS_P2;Temp;Humidity;BMP_temperature;BMP_pressure;BME280_temperature;BME280_humidity;BME280_pressure;Samples;Min_cycle;Max_cycle;Signal;HPM_P1;HPM_P2
2021/08/08 00:02:25;;;;;;;0.55;0.55;;;;;;;;;;5053589;28;20412;-52
2021/08/08 00:04:52;;;;;;;0.80;0.80;;;;;;;;;;5053888;28;20490;-52
2021/08/08 00:07:18;;;;;;;0.93;0.80;;;;;;;;;;5054420;28;20029;-52
2021/08/08 00:09:45;;;;;;;0.73;0.60;;;;;;;;;;5053886;28;20063;-51
2021/08/08 00:12:11;;;;;;;1.10;0.98;;;;;;;;;;5053358;28;20064;-52
2021/08/08 00:14:37;;;;;;;2.28;1.08;;;;;;;;;;5054493;28;20049;-52
2021/08/08 00:17:04;;;;;;;3.92;0.90;;;;;;;;;;5053480;28;20079;-52
2021/08/08 00:19:31;;;;;;;0.60;0.60;;;;;;;;;;5053781;28;20029;-52
2021/08/08 00:21:57;;;;;;;3.85;0.80;;;;;;;;;;5053174;28;20431;-52
2021/08/08 00:24:23;;;;;;;0.60;0.60;;;;;;;;;;5053434;28;20047;-52
2021/08/08 00:26:49;;;;;;;2.38;0.63;;;;;;;;;;5053530;28;20355;-52
2021/08/08 00:29:15;;;;;;;0.45;0.45;;;;;;;;;;5053726;28;20482;-52
2021/08/08 00:31:41;;;;;;;0.50;0.50;;;;;;;;;;5052413;28;20454;-52
2021/08/08 00:34:07;;;;;;;4.65;0.98;;;;;;;;;;5053733;28;20029;-52
2021/08/08 00:36:36;;;;;;;0.80;0.70;;;;;;;;;;5053523;28;20028;-52
2021/08/08 00:39:03;;;;;;;3.58;0.60;;;;;;;;;;5053432;28;20393;-52
2021/08/08 00:41:29;;;;;;;1.02;0.88;;;;;;;;;;5053072;28;20051;-51
2021/08/08 00:43:55;;;;;;;1.25;0.80;;;;;;;;;;5053326;28;20025;-52
2021/08/08 00:46:21;;;;;;;0.95;0.73;;;;;;;;;;5052880;28;20086;-51
2021/08/08 00:48:47;;;;;;;1.52;0.63;;;;;;;;;;5053445;28;20211;-52
2021/08/08 00:51:13;;;;;;;3.90;1.02;;;;;;;;;;5051691;28;20029;-52
2021/08/08 00:53:39;;;;;;;4.20;0.85;;;;;;;;;;5053287;28;20076;-52
2021/08/08 00:56:05;;;;;;;4.18;0.73;;;;;;;;;;5053717;28;20021;-52
2021/08/08 00:58:31;;;;;;;1.58;0.70;;;;;;;;;;5053016;28;20029;-52
2021/08/08 01:00:58;;;;;;;0.57;0.57;;;;;;;;;;5052175;28;20033;-52
2021/08/08 01:03:25;;;;;;;1.13;0.90;;;;;;;;;;5053729;28;20029;-52
2021/08/08 01:05:53;;;;;;;2.58;0.70;;;;;;;;;;5053424;28;20044;-52
2021/08/08 01:08:22;;;;;;;0.60;0.60;;;;;;;;;;5052581;28;20040;-52
2021/08/08 01:10:48;;;;;;;0.68;0.60;;;;;;;;;;5051860;28;20044;-51
2021/08/08 01:13:14;;;;;;;1.40;0.90;;;;;;;;;;5052696;28;20036;-52
2021/08/08 01:15:41;;;;;;;1.08;0.88;;;;;;;;;;5052892;28;20028;-52
2021/08/08 01:18:07;;;;;;;1.13;0.80;;;;;;;;;;5052973;28;20029;-52
2021/08/08 01:20:34;;;;;;;1.00;0.73;;;;;;;;;;5052094;28;20032;-52
2021/08/08 01:23:02;;;;;;;1.25;0.65;;;;;;;;;;5052623;28;20501;-52
2021/08/08 01:25:30;;;;;;;3.00;0.93;;;;;;;;;;5052618;28;20118;-52
2021/08/08 01:27:57;;;;;;;0.95;0.60;;;;;;;;;;5052650;28;20048;-51
2021/08/08 01:30:24;;;;;;;1.13;0.70;;;;;;;;;;5052325;28;20039;-52
2021/08/08 01:32:50;;;;;;;0.70;0.70;;;;;;;;;;5052261;28;20048;-52
2021/08/08 01:35:16;;;;;;;1.38;1.00;;;;;;;;;;5052939;28;20027;-52
2021/08/08 01:37:42;;;;;;;0.95;0.90;;;;;;;;;;5052583;28;20021;-52
2021/08/08 01:40:24;;;;;;;0.55;0.55;;;;;;;;;;5052698;28;20273;-52
2021/08/08 01:42:51;;;;;;;1.63;0.80;;;;;;;;;;5063860;28;20433;-52
2021/08/08 01:45:18;;;;;;;1.60;0.70;;;;;;;;;;5072687;28;20032;-52
2021/08/08 01:47:48;;;;;;;0.90;0.75;;;;;;;;;;5072560;28;20012;-51
2021/08/08 01:50:14;;;;;;;0.60;0.60;;;;;;;;;;5072317;28;20498;-52
2021/08/08 01:52:40;;;;;;;2.03;0.95;;;;;;;;;;5071837;28;20477;-53
2021/08/08 01:55:06;;;;;;;1.00;0.80;;;;;;;;;;5072091;28;20442;-51
2021/08/08 01:57:34;;;;;;;0.77;0.77;;;;;;;;;;5072808;28;20464;-51
2021/08/08 02:00:00;;;;;;;0.93;0.80;;;;;;;;;;5072441;28;20052;-52
2021/08/08 02:02:26;;;;;;;2.45;1.00;;;;;;;;;;5074351;28;20048;-51
2021/08/08 02:04:52;;;;;;;4.43;1.00;;;;;;;;;;5076460;28;20079;-52
2021/08/08 02:07:18;;;;;;;1.05;0.80;;;;;;;;;;5076217;28;20020;-51
2021/08/08 02:09:45;;;;;;;1.33;0.60;;;;;;;;;;5075940;28;20455;-52
2021/08/08 02:12:11;;;;;;;0.70;0.60;;;;;;;;;;5075324;28;20035;-52
2021/08/08 02:14:37;;;;;;;4.40;0.70;;;;;;;;;;5076355;28;20021;-52
2021/08/08 02:17:04;;;;;;;3.42;0.70;;;;;;;;;;5076354;28;20070;-52
2021/08/08 02:19:30;;;;;;;2.17;0.80;;;;;;;;;;5076425;28;20400;-52
2021/08/08 02:21:56;;;;;;;1.25;0.90;;;;;;;;;;5075139;28;20029;-52
2021/08/08 02:24:23;;;;;;;8.82;0.95;;;;;;;;;;5074615;28;20061;-52
2021/08/08 02:26:49;;;;;;;0.63;0.63;;;;;;;;;;5075726;28;20031;-51
2021/08/08 02:29:15;;;;;;;0.77;0.77;;;;;;;;;;5076025;28;20027;-52
2021/08/08 02:31:42;;;;;;;0.80;0.65;;;;;;;;;;5074967;28;20024;-51
2021/08/08 02:34:08;;;;;;;4.35;0.57;;;;;;;;;;5076251;28;20103;-51
2021/08/08 02:36:34;;;;;;;2.05;0.88;;;;;;;;;;5056284;28;20025;-52
2021/08/08 02:39:01;;;;;;;1.73;1.23;;;;;;;;;;5055831;28;20369;-51
2021/08/08 02:41:27;;;;;;;0.95;0.70;;;;;;;;;;5054919;28;20021;-52
2021/08/08 02:43:56;;;;;;;1.17;0.77;;;;;;;;;;5055713;28;20025;-51
2021/08/08 02:46:22;;;;;;;2.78;1.40;;;;;;;;;;5055830;28;20029;-51
2021/08/08 02:48:48;;;;;;;1.85;0.90;;;;;;;;;;5055876;28;20036;-52
2021/08/08 02:51:14;;;;;;;2.42;1.38;;;;;;;;;;5054733;28;20100;-52
2021/08/08 02:53:40;;;;;;;1.45;0.90;;;;;;;;;;5055399;28;20172;-51
2021/08/08 02:56:06;;;;;;;5.53;1.00;;;;;;;;;;5050713;28;23042;-51
2021/08/08 02:58:33;;;;;;;0.93;0.90;;;;;;;;;;5075304;28;20025;-51
2021/08/08 03:00:59;;;;;;;0.55;0.55;;;;;;;;;;5074530;28;20082;-51
2021/08/08 03:03:25;;;;;;;2.65;0.68;;;;;;;;;;5075455;28;20421;-52
2021/08/08 03:05:51;;;;;;;0.73;0.70;;;;;;;;;;5075375;28;20406;-52
2021/08/08 03:08:17;;;;;;;1.40;1.00;;;;;;;;;;5074873;28;20056;-52
2021/08/08 03:10:43;;;;;;;0.80;0.80;;;;;;;;;;5074415;28;20039;-51
2021/08/08 03:13:09;;;;;;;5.47;0.82;;;;;;;;;;5073973;28;20025;-52
2021/08/08 03:15:35;;;;;;;1.15;0.75;;;;;;;;;;5075358;28;20098;-52
2021/08/08 03:18:01;;;;;;;0.70;0.70;;;;;;;;;;5075090;28;20025;-51
2021/08/08 03:20:27;;;;;;;1.25;0.88;;;;;;;;;;5074322;28;20040;-52
2021/08/08 03:22:53;;;;;;;0.70;0.70;;;;;;;;;;5074007;28;20025;-52
2021/08/08 03:25:19;;;;;;;1.05;0.95;;;;;;;;;;5069058;28;20529;-51
2021/08/08 03:27:45;;;;;;;1.00;0.80;;;;;;;;;;5073501;28;20051;-51
2021/08/08 03:30:11;;;;;;;1.15;1.05;;;;;;;;;;5075013;28;20438;-52
2021/08/08 03:32:37;;;;;;;8.23;0.80;;;;;;;;;;5073786;28;20024;-52
2021/08/08 03:35:04;;;;;;;1.17;0.95;;;;;;;;;;5074962;28;20106;-52
2021/08/08 03:37:30;;;;;;;1.33;1.10;;;;;;;;;;5074506;28;20020;-52
2021/08/08 03:39:56;;;;;;;0.73;0.73;;;;;;;;;;5074682;28;20055;-52
2021/08/08 03:42:22;;;;;;;0.95;0.70;;;;;;;;;;5073253;28;20029;-52
2021/08/08 03:44:50;;;;;;;0.77;0.77;;;;;;;;;;5060922;28;20037;-52
2021/08/08 03:47:18;;;;;;;1.73;0.90;;;;;;;;;;5054776;28;20025;-52
2021/08/08 03:49:44;;;;;;;7.93;0.95;;;;;;;;;;5054187;28;20029;-52
2021/08/08 03:52:10;;;;;;;3.10;0.90;;;;;;;;;;5053320;28;20083;-52
2021/08/08 03:54:36;;;;;;;3.20;0.77;;;;;;;;;;5054401;28;20549;-52
2021/08/08 03:57:02;;;;;;;0.88;0.82;;;;;;;;;;5054186;28;20017;-52
2021/08/08 03:59:28;;;;;;;1.17;0.70;;;;;;;;;;5054455;28;20053;-52
2021/08/08 04:01:54;;;;;;;4.22;0.98;;;;;;;;;;5053111;28;20048;-52
2021/08/08 04:04:20;;;;;;;0.90;0.90;;;;;;;;;;5052723;28;20082;-52
2021/08/08 04:06:46;;;;;;;1.00;0.90;;;;;;;;;;5052069;28;20502;-52
2021/08/08 04:09:12;;;;;;;3.22;1.05;;;;;;;;;;5053671;28;20083;-52
2021/08/08 04:11:38;;;;;;;3.40;0.75;;;;;;;;;;5052269;28;20025;-51
2021/08/08 04:14:04;;;;;;;2.17;1.17;;;;;;;;;;5052850;28;20017;-52
2021/08/08 04:16:30;;;;;;;0.88;0.88;;;;;;;;;;5053510;28;20028;-52
2021/08/08 04:18:56;;;;;;;2.65;0.93;;;;;;;;;;5053591;28;20147;-52
2021/08/08 04:21:22;;;;;;;6.90;0.75;;;;;;;;;;5052999;28;20025;-52
2021/08/08 04:23:48;;;;;;;1.13;0.75;;;;;;;;;;5053671;28;20400;-51
2021/08/08 04:26:14;;;;;;;4.63;0.80;;;;;;;;;;5053793;28;20032;-52
2021/08/08 04:28:41;;;;;;;1.42;0.80;;;;;;;;;;5053531;28;20032;-52
2021/08/08 04:31:08;;;;;;;4.63;0.82;;;;;;;;;;5059723;28;20028;-52
2021/08/08 04:33:34;;;;;;;1.88;1.00;;;;;;;;;;5054561;28;20021;-52
2021/08/08 04:36:00;;;;;;;0.85;0.77;;;;;;;;;;5055967;28;20068;-52
2021/08/08 04:38:26;;;;;;;1.55;0.85;;;;;;;;;;5058666;28;20560;-53
2021/08/08 04:40:52;;;;;;;1.33;1.20;;;;;;;;;;5054966;28;20124;-52
2021/08/08 04:43:18;;;;;;;1.00;1.00;;;;;;;;;;5053605;28;20025;-52
2021/08/08 04:45:44;;;;;;;3.03;1.10;;;;;;;;;;5053460;28;20339;-51
2021/08/08 04:48:10;;;;;;;1.20;0.98;;;;;;;;;;5052951;28;20033;-52
2021/08/08 04:50:36;;;;;;;1.95;1.08;;;;;;;;;;5052459;28;20017;-51
2021/08/08 04:53:02;;;;;;;1.25;1.10;;;;;;;;;;5053421;28;20066;-52
2021/08/08 04:55:28;;;;;;;4.00;1.75;;;;;;;;;;5053019;28;20431;-52
2021/08/08 04:57:54;;;;;;;0.80;0.80;;;;;;;;;;5053431;28;20346;-52
2021/08/08 05:00:20;;;;;;;2.47;0.90;;;;;;;;;;5053119;28;20021;-52
2021/08/08 05:02:47;;;;;;;1.20;0.93;;;;;;;;;;5052637;28;20120;-52
2021/08/08 05:05:14;;;;;;;5.35;1.17;;;;;;;;;;5052575;28;20044;-52
2021/08/08 05:07:40;;;;;;;1.40;0.95;;;;;;;;;;5053261;28;20335;-51
2021/08/08 05:10:07;;;;;;;0.70;0.70;;;;;;;;;;5056066;28;20025;-51
2021/08/08 05:12:33;;;;;;;2.42;0.98;;;;;;;;;;5062133;28;20056;-52
2021/08/08 05:14:59;;;;;;;3.40;0.73;;;;;;;;;;5062827;28;20029;-51
2021/08/08 05:17:25;;;;;;;2.33;1.02;;;;;;;;;;5067614;28;20065;-51
2021/08/08 05:19:51;;;;;;;2.88;0.82;;;;;;;;;;5072223;28;20111;-51
2021/08/08 05:22:17;;;;;;;0.98;0.90;;;;;;;;;;5072124;28;20037;-52
2021/08/08 05:24:43;;;;;;;0.95;0.70;;;;;;;;;;5072625;28;20039;-51
2021/08/08 05:27:09;;;;;;;3.60;0.88;;;;;;;;;;5073098;28;20017;-52
2021/08/08 05:29:35;;;;;;;2.72;0.95;;;;;;;;;;5072873;28;20028;-51
2021/08/08 05:32:01;;;;;;;2.55;0.80;;;;;;;;;;5072329;28;20025;-51
2021/08/08 05:34:27;;;;;;;1.75;0.77;;;;;;;;;;5071010;28;20028;-52
2021/08/08 05:36:53;;;;;;;0.95;0.80;;;;;;;;;;5052354;28;20021;-52
2021/08/08 05:39:19;;;;;;;0.60;0.60;;;;;;;;;;5052666;28;20453;-52
2021/08/08 05:41:45;;;;;;;0.88;0.88;;;;;;;;;;5051669;28;20029;-52
2021/08/08 05:44:11;;;;;;;5.38;1.20;;;;;;;;;;5052683;28;20068;-52
2021/08/08 05:46:37;;;;;;;1.75;0.95;;;;;;;;;;5052695;28;20025;-52
2021/08/08 05:49:05;;;;;;;0.93;0.77;;;;;;;;;;5052231;28;20036;-52
2021/08/08 05:51:31;;;;;;;4.65;1.50;;;;;;;;;;5056822;28;20028;-52
2021/08/08 05:53:57;;;;;;;0.90;0.80;;;;;;;;;;5062916;28;20450;-52
2021/08/08 05:56:23;;;;;;;3.38;1.10;;;;;;;;;;5061514;28;20032;-52
2021/08/08 05:58:49;;;;;;;1.85;1.10;;;;;;;;;;5061912;28;20032;-52
2021/08/08 06:01:15;;;;;;;1.85;1.35;;;;;;;;;;5062006;28;20351;-52
2021/08/08 06:03:41;;;;;;;1.70;1.00;;;;;;;;;;5061120;28;20025;-52
2021/08/08 06:06:10;;;;;;;1.25;1.15;;;;;;;;;;5062292;28;20034;-52
2021/08/08 06:08:35;;;;;;;2.40;1.70;;;;;;;;;;5063044;28;20456;-52
2021/08/08 06:11:01;;;;;;;2.22;1.42;;;;;;;;;;5060124;28;20108;-52
2021/08/08 06:13:27;;;;;;;4.00;1.38;;;;;;;;;;5061621;28;20025;-52
2021/08/08 06:15:53;;;;;;;2.10;1.50;;;;;;;;;;5062654;28;20068;-52
2021/08/08 06:18:19;;;;;;;1.60;1.33;;;;;;;;;;5061312;28;20328;-52
2021/08/08 06:20:45;;;;;;;1.60;1.33;;;;;;;;;;5061516;28;20016;-52
2021/08/08 06:23:11;;;;;;;2.15;1.58;;;;;;;;;;5062201;28;20450;-52
2021/08/08 06:25:37;;;;;;;2.55;1.90;;;;;;;;;;5060907;28;20116;-52
2021/08/08 06:28:04;;;;;;;4.00;1.55;;;;;;;;;;5069689;28;20113;-52
2021/08/08 06:30:30;;;;;;;1.25;1.15;;;;;;;;;;5071797;28;20078;-52
2021/08/08 06:32:56;;;;;;;2.17;1.40;;;;;;;;;;5071827;28;20028;-52
2021/08/08 06:35:22;;;;;;;4.13;1.83;;;;;;;;;;5063336;28;20405;-52
2021/08/08 06:37:48;;;;;;;2.15;1.20;;;;;;;;;;5052052;28;20029;-52
2021/08/08 06:40:14;;;;;;;6.28;1.90;;;;;;;;;;5051976;28;20032;-52
2021/08/08 06:42:40;;;;;;;9.27;1.38;;;;;;;;;;5050853;28;20159;-52
2021/08/08 06:45:06;;;;;;;1.35;1.10;;;;;;;;;;5052983;28;20375;-52
2021/08/08 06:47:32;;;;;;;2.72;1.40;;;;;;;;;;5072386;28;20452;-52
2021/08/08 06:49:58;;;;;;;1.52;0.90;;;;;;;;;;5074786;28;20147;-52
2021/08/08 06:52:24;;;;;;;1.45;1.20;;;;;;;;;;5074808;28;20060;-52
2021/08/08 06:54:50;;;;;;;1.95;1.75;;;;;;;;;;5075384;28;20473;-52
2021/08/08 06:57:26;;;;;;;7.25;1.00;;;;;;;;;;5075916;28;20024;-52
2021/08/08 06:59:53;;;;;;;0.95;0.80;;;;;;;;;;5067931;28;20050;-52
2021/08/08 07:02:19;;;;;;;1.45;1.30;;;;;;;;;;5063936;28;20056;-52
2021/08/08 07:04:45;;;;;;;1.20;1.10;;;;;;;;;;5072534;28;20052;-52
2021/08/08 07:07:11;;;;;;;2.35;1.52;;;;;;;;;;5075401;28;20028;-52
2021/08/08 07:09:37;;;;;;;4.13;1.67;;;;;;;;;;5075322;28;20028;-52
2021/08/08 07:12:03;;;;;;;1.70;1.60;;;;;;;;;;5074463;28;20070;-52
2021/08/08 07:14:33;;;;;;;3.20;2.05;;;;;;;;;;5060347;28;20029;-52
2021/08/08 07:16:59;;;;;;;1.98;1.58;;;;;;;;;;5055293;28;20090;-52
2021/08/08 07:19:25;;;;;;;1.48;1.38;;;;;;;;;;5054046;28;20446;-52
2021/08/08 07:21:52;;;;;;;1.95;1.67;;;;;;;;;;5053940;28;20040;-52
2021/08/08 07:24:18;;;;;;;3.83;1.80;;;;;;;;;;5055071;28;20059;-52
2021/08/08 07:26:44;;;;;;;5.28;2.72;;;;;;;;;;5055080;28;20397;-52
2021/08/08 07:29:10;;;;;;;4.70;2.25;;;;;;;;;;5054930;28;20032;-52
2021/08/08 07:31:36;;;;;;;2.20;1.48;;;;;;;;;;5054537;28;20075;-52
2021/08/08 07:34:02;;;;;;;1.85;1.63;;;;;;;;;;5054659;28;20155;-52
2021/08/08 07:36:28;;;;;;;2.63;2.20;;;;;;;;;;5054930;28;20431;-52
2021/08/08 07:38:54;;;;;;;7.00;3.10;;;;;;;;;;5054637;28;20036;-52
2021/08/08 07:41:20;;;;;;;4.43;1.90;;;;;;;;;;5053877;28;20032;-52
2021/08/08 07:43:46;;;;;;;2.38;2.08;;;;;;;;;;5054471;28;20032;-52
2021/08/08 07:46:12;;;;;;;5.47;1.98;;;;;;;;;;5054603;28;20033;-52
2021/08/08 07:48:38;;;;;;;3.70;2.38;;;;;;;;;;5054705;28;20021;-52
2021/08/08 07:51:04;;;;;;;3.95;2.35;;;;;;;;;;5053608;28;20402;-52
2021/08/08 07:53:30;;;;;;;3.33;2.80;;;;;;;;;;5054542;28;20032;-52
2021/08/08 07:55:56;;;;;;;3.67;2.53;;;;;;;;;;5053942;28;20029;-52
2021/08/08 07:58:23;;;;;;;3.10;2.55;;;;;;;;;;5054740;28;20029;-52
2021/08/08 08:00:49;;;;;;;6.35;2.38;;;;;;;;;;5052951;28;20068;-52
2021/08/08 08:03:15;;;;;;;2.65;1.80;;;;;;;;;;5054430;28;20025;-52
2021/08/08 08:05:41;;;;;;;1.60;1.42;;;;;;;;;;5054339;28;20115;-52
2021/08/08 08:08:07;;;;;;;5.28;1.70;;;;;;;;;;5054617;28;20029;-52
2021/08/08 08:10:35;;;;;;;4.20;1.90;;;;;;;;;;5052838;28;20025;-52
2021/08/08 08:13:01;;;;;;;1.27;1.17;;;;;;;;;;5053608;28;20486;-52
2021/08/08 08:15:28;;;;;;;1.45;1.17;;;;;;;;;;5054220;28;20024;-52
2021/08/08 08:17:54;;;;;;;0.98;0.65;;;;;;;;;;5054377;28;20021;-52
2021/08/08 08:20:20;;;;;;;2.33;0.88;;;;;;;;;;5053760;28;20028;-52
2021/08/08 08:22:46;;;;;;;3.70;1.05;;;;;;;;;;5052981;28;20167;-52
2021/08/08 08:25:12;;;;;;;1.23;1.00;;;;;;;;;;5051659;28;20370;-52
2021/08/08 08:27:39;;;;;;;3.30;1.02;;;;;;;;;;5054118;28;20021;-52
2021/08/08 08:30:06;;;;;;;2.00;1.17;;;;;;;;;;5053697;28;20106;-52
2021/08/08 08:32:32;;;;;;;2.80;1.35;;;;;;;;;;5052917;28;20051;-52
2021/08/08 08:35:03;;;;;;;0.80;0.80;;;;;;;;;;5053373;28;20438;-52
2021/08/08 08:37:30;;;;;;;2.45;1.30;;;;;;;;;;5053633;28;20060;-52
2021/08/08 08:39:56;;;;;;;2.88;1.00;;;;;;;;;;5053746;28;20039;-52
2021/08/08 08:42:23;;;;;;;1.83;1.15;;;;;;;;;;5052855;28;20024;-52
2021/08/08 08:44:50;;;;;;;1.95;1.00;;;;;;;;;;5053480;28;20032;-52
2021/08/08 08:47:16;;;;;;;2.42;1.08;;;;;;;;;;5053832;28;20025;-52
2021/08/08 08:49:45;;;;;;;1.20;1.10;;;;;;;;;;5052988;28;20504;-52
2021/08/08 08:52:13;;;;;;;1.17;0.80;;;;;;;;;;5052299;28;20025;-52
2021/08/08 08:54:39;;;;;;;0.90;0.90;;;;;;;;;;5053787;28;20031;-52
2021/08/08 08:57:07;;;;;;;0.95;0.90;;;;;;;;;;5053278;28;20017;-52
2021/08/08 08:59:33;;;;;;;1.23;1.05;;;;;;;;;;5053440;28;20025;-52
2021/08/08 09:01:59;;;;;;;5.93;0.95;;;;;;;;;;5052591;28;20406;-51
2021/08/08 09:04:25;;;;;;;1.85;0.90;;;;;;;;;;5052702;28;20048;-52
2021/08/08 09:06:51;;;;;;;1.27;0.63;;;;;;;;;;5053672;28;20017;-52
2021/08/08 09:09:17;;;;;;;2.50;0.73;;;;;;;;;;5070388;28;20033;-52
2021/08/08 09:11:45;;;;;;;0.95;0.82;;;;;;;;;;5071593;28;20031;-52
2021/08/08 09:14:12;;;;;;;0.60;0.60;;;;;;;;;;5073183;28;20029;-52
2021/08/08 09:16:42;;;;;;;0.95;0.75;;;;;;;;;;5072835;28;20031;-52
2021/08/08 09:19:16;;;;;;;0.70;0.70;;;;;;;;;;5072568;28;20051;-51
2021/08/08 09:21:43;;;;;;;1.67;0.90;;;;;;;;;;5072219;28;20041;-52
2021/08/08 09:24:09;;;;;;;1.77;0.70;;;;;;;;;;5073296;28;20056;-52
2021/08/08 09:26:36;;;;;;;1.45;0.68;;;;;;;;;;5073083;28;20089;-52
2021/08/08 09:29:05;;;;;;;1.60;0.80;;;;;;;;;;5072822;28;20028;-52
2021/08/08 09:31:37;;;;;;;2.63;0.70;;;;;;;;;;5071984;28;20020;-52
2021/08/08 09:34:03;;;;;;;4.15;0.63;;;;;;;;;;5072767;28;20465;-52
2021/08/08 09:36:38;;;;;;;15.43;0.90;;;;;;;;;;5054349;28;20025;-51
2021/08/08 09:39:04;;;;;;;0.85;0.85;;;;;;;;;;5053089;28;20029;-51
2021/08/08 09:41:32;;;;;;;2.40;1.05;;;;;;;;;;5051677;28;20413;-52
2021/08/08 09:44:08;;;;;;;1.83;0.70;;;;;;;;;;5052470;28;20056;-52
2021/08/08 09:46:34;;;;;;;2.88;0.90;;;;;;;;;;5052368;28;20029;-52
2021/08/08 09:49:13;;;;;;;3.65;0.55;;;;;;;;;;5052888;28;20108;-52
2021/08/08 09:51:51;;;;;;;0.60;0.55;;;;;;;;;;5051763;28;20036;-52
2021/08/08 09:54:19;;;;;;;0.73;0.68;;;;;;;;;;5052501;28;20037;-52
2021/08/08 09:56:45;;;;;;;0.90;0.90;;;;;;;;;;5052703;28;20112;-52
2021/08/08 09:59:11;;;;;;;1.92;0.82;;;;;;;;;;5052501;28;20530;-52
2021/08/08 10:01:38;;;;;;;0.55;0.55;;;;;;;;;;5051670;28;20052;-52
2021/08/08 10:04:04;;;;;;;1.25;0.90;;;;;;;;;;5052302;28;20376;-52
2021/08/08 10:06:30;;;;;;;1.95;0.80;;;;;;;;;;5052512;28;20036;-52
2021/08/08 10:08:56;;;;;;;2.33;0.93;;;;;;;;;;5052142;28;20029;-52
2021/08/08 10:11:22;;;;;;;1.15;0.75;;;;;;;;;;5051634;28;20036;-52
2021/08/08 10:13:52;;;;;;;1.17;0.75;;;;;;;;;;5052552;28;20040;-52
2021/08/08 10:16:19;;;;;;;1.10;0.90;;;;;;;;;;5052446;28;20025;-52
2021/08/08 10:18:49;;;;;;;3.92;1.20;;;;;;;;;;5052257;28;20031;-52
2021/08/08 10:21:15;;;;;;;0.80;0.80;;;;;;;;;;5050931;28;20036;-53
2021/08/08 10:23:44;;;;;;;3.33;0.68;;;;;;;;;;5055203;28;20028;-52
2021/08/08 10:26:10;;;;;;;1.83;1.05;;;;;;;;;;5056306;28;20037;-52
2021/08/08 10:28:36;;;;;;;1.75;1.10;;;;;;;;;;5056394;28;20029;-52
2021/08/08 10:31:03;;;;;;;1.25;1.00;;;;;;;;;;5055320;28;20029;-52
2021/08/08 10:33:29;;;;;;;4.70;1.10;;;;;;;;;;5055853;28;20028;-52
2021/08/08 10:35:55;;;;;;;3.00;1.92;;;;;;;;;;5055635;28;20087;-52
2021/08/08 10:38:21;;;;;;;5.45;1.75;;;;;;;;;;5056143;28;20027;-52
2021/08/08 10:40:48;;;;;;;3.85;1.60;;;;;;;;;;5055409;28;20025;-52
2021/08/08 10:43:25;;;;;;;2.17;1.10;;;;;;;;;;5055487;28;20343;-52
2021/08/08 10:46:02;;;;;;;1.50;1.10;;;;;;;;;;5055630;28;20037;-52
2021/08/08 10:48:31;;;;;;;1.55;1.05;;;;;;;;;;5055851;28;20055;-52
2021/08/08 10:50:57;;;;;;;2.00;1.30;;;;;;;;;;5054971;28;20109;-52
2021/08/08 10:53:24;;;;;;;1.10;0.98;;;;;;;;;;5055769;28;20506;-52
2021/08/08 10:56:01;;;;;;;8.15;4.55;;;;;;;;;;5055488;28;20033;-52
2021/08/08 10:58:31;;;;;;;7.55;3.03;;;;;;;;;;5055703;28;20017;-52
2021/08/08 11:00:57;;;;;;;7.53;3.33;;;;;;;;;;5054861;28;20029;-52
2021/08/08 11:03:23;;;;;;;4.88;2.53;;;;;;;;;;5055504;28;20017;-52
2021/08/08 11:05:49;;;;;;;5.95;2.50;;;;;;;;;;5055631;28;20036;-52
2021/08/08 11:08:15;;;;;;;5.32;2.05;;;;;;;;;;5055022;28;20505;-52
2021/08/08 11:10:43;;;;;;;2.13;1.73;;;;;;;;;;5054514;28;20408;-52
2021/08/08 11:13:19;;;;;;;6.55;1.67;;;;;;;;;;5054985;28;20028;-52
2021/08/08 11:15:45;;;;;;;7.53;1.83;;;;;;;;;;5055230;28;20455;-52
2021/08/08 11:18:13;;;;;;;2.92;2.22;;;;;;;;;;5055011;28;20435;-52
2021/08/08 11:20:39;;;;;;;3.30;2.22;;;;;;;;;;5054359;28;20107;-52
2021/08/08 11:23:05;;;;;;;4.05;2.67;;;;;;;;;;5054481;28;20136;-52
2021/08/08 11:25:41;;;;;;;3.25;1.65;;;;;;;;;;5055390;28;20389;-52
2021/08/08 11:28:08;;;;;;;1.60;1.45;;;;;;;;;;5054818;28;20454;-52
2021/08/08 11:30:38;;;;;;;7.45;1.95;;;;;;;;;;5054091;28;20485;-52
2021/08/08 11:33:04;;;;;;;1.83;1.40;;;;;;;;;;5055113;28;20032;-52
2021/08/08 11:35:30;;;;;;;4.60;1.58;;;;;;;;;;5054165;28;20052;-52
2021/08/08 11:37:56;;;;;;;3.50;1.20;;;;;;;;;;5054802;28;20021;-52
2021/08/08 11:40:24;;;;;;;1.70;0.90;;;;;;;;;;5054776;28;20476;-52
2021/08/08 11:43:00;;;;;;;2.30;1.05;;;;;;;;;;5053331;28;20029;-52
2021/08/08 11:45:32;;;;;;;2.20;1.02;;;;;;;;;;5054201;28;20037;-53
2021/08/08 11:47:58;;;;;;;1.73;1.00;;;;;;;;;;5054590;28;20524;-53
2021/08/08 11:50:28;;;;;;;1.25;0.98;;;;;;;;;;5054629;28;20021;-52
2021/08/08 11:52:55;;;;;;;6.60;0.93;;;;;;;;;;5053694;28;20063;-52
2021/08/08 11:55:21;;;;;;;2.40;1.02;;;;;;;;;;5054213;28;20355;-52
2021/08/08 11:57:47;;;;;;;2.88;1.10;;;;;;;;;;5054711;28;20496;-52
2021/08/08 12:00:13;;;;;;;2.30;1.45;;;;;;;;;;5054568;28;20037;-52
2021/08/08 12:02:39;;;;;;;0.70;0.70;;;;;;;;;;5053527;28;20025;-52
2021/08/08 12:05:05;;;;;;;2.47;1.23;;;;;;;;;;5053890;28;20048;-52
2021/08/08 12:07:32;;;;;;;1.05;0.75;;;;;;;;;;5054177;28;20036;-52
2021/08/08 12:09:59;;;;;;;2.08;1.00;;;;;;;;;;5054374;28;20043;-52
2021/08/08 12:12:36;;;;;;;2.45;0.63;;;;;;;;;;5053135;28;20471;-52
2021/08/08 12:15:02;;;;;;;0.98;0.77;;;;;;;;;;5054072;28;20032;-52
2021/08/08 12:17:28;;;;;;;1.27;0.90;;;;;;;;;;5053767;28;20029;-52
2021/08/08 12:19:57;;;;;;;0.90;0.90;;;;;;;;;;5053705;28;20116;-52
2021/08/08 12:22:28;;;;;;;1.10;0.82;;;;;;;;;;5053119;28;20033;-52
2021/08/08 12:25:08;;;;;;;3.90;0.85;;;;;;;;;;5054159;28;20033;-52
2021/08/08 12:27:35;;;;;;;8.57;1.77;;;;;;;;;;5054124;28;20025;-52
2021/08/08 12:30:02;;;;;;;1.17;0.85;;;;;;;;;;5053422;28;20037;-52
2021/08/08 12:32:35;;;;;;;2.30;1.05;;;;;;;;;;5052577;28;20033;-52
2021/08/08 12:35:05;;;;;;;2.70;1.05;;;;;;;;;;5053920;28;20032;-52
2021/08/08 12:37:31;;;;;;;0.57;0.57;;;;;;;;;;5054092;28;20029;-52
2021/08/08 12:40:07;;;;;;;3.70;0.63;;;;;;;;;;5053380;28;20024;-52
2021/08/08 12:42:33;;;;;;;0.93;0.80;;;;;;;;;;5052955;28;20025;-52
2021/08/08 12:45:03;;;;;;;0.82;0.60;;;;;;;;;;5053081;28;20036;-52
2021/08/08 12:47:34;;;;;;;2.35;0.90;;;;;;;;;;5053738;28;20083;-52
2021/08/08 12:50:00;;;;;;;4.18;0.93;;;;;;;;;;5053660;28;20071;-52
2021/08/08 12:52:26;;;;;;;3.97;1.20;;;;;;;;;;5052829;28;20021;-52
2021/08/08 12:54:52;;;;;;;2.72;1.02;;;;;;;;;;5053141;28;20036;-52
2021/08/08 12:57:18;;;;;;;1.95;0.77;;;;;;;;;;5053769;28;20021;-52
2021/08/08 12:59:44;;;;;;;2.90;1.02;;;;;;;;;;5053036;28;20512;-52
2021/08/08 13:02:10;;;;;;;1.58;0.70;;;;;;;;;;5070089;28;20025;-52
2021/08/08 13:04:36;;;;;;;2.03;0.85;;;;;;;;;;5073054;28;20465;-52
2021/08/08 13:07:02;;;;;;;6.00;1.10;;;;;;;;;;5073297;28;20078;-52
2021/08/08 13:09:28;;;;;;;0.80;0.80;;;;;;;;;;5072999;28;20075;-52
2021/08/08 13:11:57;;;;;;;0.68;0.65;;;;;;;;;;5072463;28;20024;-52
2021/08/08 13:14:23;;;;;;;0.68;0.60;;;;;;;;;;5072677;28;20039;-52
2021/08/08 13:16:49;;;;;;;0.70;0.70;;;;;;;;;;5073272;28;20450;-52
2021/08/08 13:19:15;;;;;;;1.27;1.00;;;;;;;;;;5073268;28;20032;-52
2021/08/08 13:21:41;;;;;;;3.53;0.88;;;;;;;;;;5071874;28;20036;-52
2021/08/08 13:24:07;;;;;;;2.00;0.77;;;;;;;;;;5072850;28;20111;-52
2021/08/08 13:26:34;;;;;;;3.92;0.85;;;;;;;;;;5072428;28;20490;-52
2021/08/08 13:29:01;;;;;;;5.60;0.82;;;;;;;;;;5073134;28;20064;-52
2021/08/08 13:31:26;;;;;;;1.65;0.95;;;;;;;;;;5071891;28;20533;-52
2021/08/08 13:33:53;;;;;;;1.02;1.02;;;;;;;;;;5073028;28;20056;-52
2021/08/08 13:36:19;;;;;;;13.90;0.95;;;;;;;;;;5072711;28;20023;-53
2021/08/08 13:38:45;;;;;;;1.20;0.93;;;;;;;;;;5072620;28;20024;-52
2021/08/08 13:41:11;;;;;;;1.48;1.15;;;;;;;;;;5071862;28;20425;-52
2021/08/08 13:43:37;;;;;;;2.22;1.45;;;;;;;;;;5072687;28;20426;-52
2021/08/08 13:46:03;;;;;;;2.72;1.75;;;;;;;;;;5072539;28;20048;-52
2021/08/08 13:48:29;;;;;;;5.60;1.65;;;;;;;;;;5072441;28;20020;-52
2021/08/08 13:50:55;;;;;;;4.68;1.38;;;;;;;;;;5071828;28;20407;-52
2021/08/08 13:53:21;;;;;;;1.17;0.95;;;;;;;;;;5072465;28;20029;-52
2021/08/08 13:55:47;;;;;;;5.20;1.10;;;;;;;;;;5072805;28;20029;-52
2021/08/08 13:58:13;;;;;;;2.97;1.10;;;;;;;;;;5074715;28;20060;-52
2021/08/08 14:00:38;;;;;;;1.55;1.20;;;;;;;;;;5075913;28;20021;-52
2021/08/08 14:03:04;;;;;;;4.40;1.20;;;;;;;;;;5076320;28;20021;-52
2021/08/08 14:05:31;;;;;;;6.78;1.25;;;;;;;;;;5076605;28;20048;-52
2021/08/08 14:07:57;;;;;;;8.77;1.17;;;;;;;;;;5076645;28;20036;-52
2021/08/08 14:10:23;;;;;;;2.25;1.25;;;;;;;;;;5075965;28;20028;-52
2021/08/08 14:12:49;;;;;;;13.13;2.42;;;;;;;;;;5075515;28;20434;-52
2021/08/08 14:15:15;;;;;;;2.03;1.25;;;;;;;;;;5076347;28;20020;-52
2021/08/08 14:17:41;;;;;;;1.98;1.30;;;;;;;;;;5076322;28;20028;-52
2021/08/08 14:20:07;;;;;;;1.70;1.20;;;;;;;;;;5076158;28;20107;-52
2021/08/08 14:22:33;;;;;;;1.70;1.27;;;;;;;;;;5075536;28;20028;-52
2021/08/08 14:24:59;;;;;;;1.05;0.95;;;;;;;;;;5075839;28;20353;-52
2021/08/08 14:27:26;;;;;;;2.25;1.20;;;;;;;;;;5075533;28;20024;-52
2021/08/08 14:29:52;;;;;;;1.92;1.30;;;;;;;;;;5075627;28;20073;-52
2021/08/08 14:32:18;;;;;;;2.50;1.02;;;;;;;;;;5073674;28;20351;-52
2021/08/08 14:34:44;;;;;;;0.98;0.88;;;;;;;;;;5075689;28;20046;-52
2021/08/08 14:37:09;;;;;;;1.17;1.08;;;;;;;;;;5075884;28;20033;-52
2021/08/08 14:39:35;;;;;;;1.95;0.90;;;;;;;;;;5076091;28;20051;-53
2021/08/08 14:42:02;;;;;;;1.33;0.90;;;;;;;;;;5075014;28;20467;-52